Midway, Minnesota
Current Conditions -  °F | °C
As of 6:03 AM on Thursday 23 Oct 2014 (Local Time) from KPKD Reporting Station
Overcast Overcast  
Wind Chill: 50°   Ceiling: 400
Heat Index: 50°   Visibility: 8mi
Dew Point: 49°   Wind: 7mph
Humidity: 96%   Direction: 210°SSW
Pressure: 29.92"   Gusts: NA
Location:  46.7591°N, 94.9748°W
Report Text: KPKD 231103Z AUTO 21006KT 8SM OVC004 10/09 A2992 RMK AO2 T01000094 TSNO
Loading
Personal Weather Stations






























Interactive Weather Map
Tropical Storm Tracking
New forecast layout! Learn more

10-Day Weather Forecast

Advertisements
Track Severe Weather on mobile